Latest Weather Observations for Smithton

IDT60801

Issued at 8:02 am EST Monday 25 July 2016 (issued every 30 minutes, with the page automatically refreshed every 10 minutes)

About weather observations | Map of weather stations | Latest weather observations for TAS | Other Formats
Station Details ID: 091292 Name: SMITHTON AERODROME Lat: -40.83 Lon: 145.08 Height: 7.5 m
Data from the previous 72 hours. | See also: Recent months at Smithton
Date/Time
EST
Temp
°C
App
Temp
°C
Dew
Point
°C
Rel
Hum
%
Delta-T
°C
Wind Press
QNH
hPa
Press
MSL
hPa
Rain since
9am
mm
Dir  Spd
km/h
Gust
km/h
Spd
kts
Gust
kts
25/08:00am 5.6 3.4 5.3 98 0.1 SW 6 7 3 4 1001.0 - 7.0
25/07:30am 5.2 2.7 4.8 97 0.2 WSW 7 9 4 5 1000.7 - 7.0
25/07:00am 6.0 3.9 5.6 97 0.2 WSW 6 6 3 3 1000.4 - 7.0
25/06:30am 6.6 4.0 6.2 97 0.2 WSW 9 11 5 6 1000.1 - 7.0
25/06:00am 6.8 4.3 6.4 97 0.2 SW 9 11 5 6 999.5 999.5 7.0
25/05:30am 7.2 5.3 6.8 97 0.2 SSE 6 9 3 5 999.2 - 6.8
25/05:00am 7.5 5.1 7.1 97 0.2 S 9 13 5 7 999.0 - 6.6
25/04:30am 7.4 6.3 6.8 96 0.3 N 2 7 1 4 999.0 - 6.0
25/04:00am 7.8 5.8 7.2 96 0.3 N 7 7 4 4 998.9 - 5.8
25/03:30am 6.5 4.4 5.8 95 0.3 N 6 7 3 4 999.0 - 5.8
25/03:00am 8.6 7.7 7.7 94 0.4 N 2 6 1 3 999.4 999.4 5.8
25/02:30am 8.5 6.3 7.7 95 0.4 N 9 11 5 6 999.6 - 5.8
25/02:00am 8.6 6.4 7.8 95 0.4 N 9 11 5 6 999.8 - 5.8
25/01:30am 8.6 6.7 7.7 94 0.4 NNW 7 9 4 5 999.9 - 5.8
25/01:00am 8.8 6.9 7.7 93 0.5 NW 7 11 4 6 1000.2 - 5.6
25/12:30am 9.0 6.3 7.5 90 0.7 W 11 17 6 9 1000.3 - 5.4
25/12:00am 9.4 5.1 7.7 89 0.8 N 20 30 11 16 1000.5 1000.5 5.4
 
Date/Time
EST
Temp
°C
App
Temp
°C
Dew
Point
°C
Rel
Hum
%
Delta-T
°C
Wind Press
QNH
hPa
Press
MSL
hPa
Rain since
9am
mm
Dir  Spd
km/h
Gust
km/h
Spd
kts
Gust
kts
24/11:30pm 9.0 6.0 7.6 91 0.7 N 13 17 7 9 1000.6 - 5.4
24/11:00pm 8.8 4.5 6.9 88 0.9 N 19 28 10 15 1000.9 - 5.4
24/10:30pm 8.9 7.0 7.7 92 0.6 N 7 13 4 7 1000.8 - 5.2
24/10:00pm 7.9 5.9 7.3 96 0.3 N 7 9 4 5 1001.2 - 5.2
24/09:30pm 7.8 5.8 7.2 96 0.3 N 7 9 4 5 1001.4 - 5.2
24/09:00pm 7.5 5.1 6.8 95 0.3 N 9 11 5 6 1001.7 1001.7 5.2
24/08:30pm 7.6 5.7 6.5 93 0.5 N 6 7 3 4 1001.8 - 5.2
24/08:00pm 8.0 6.0 6.9 93 0.5 N 7 11 4 6 1002.1 - 5.2
24/07:30pm 8.1 5.4 7.3 95 0.4 NW 11 17 6 9 1002.4 - 5.0
24/07:00pm 7.0 4.8 6.4 96 0.3 NNE 7 20 4 11 1002.7 - 4.6
24/06:30pm 6.6 5.3 5.9 95 0.3 ESE 2 7 1 4 1002.3 - 4.4
24/06:00pm 6.7 4.5 6.0 95 0.3 SSW 7 9 4 5 1002.5 1002.5 4.4
24/05:30pm 7.0 4.4 6.1 94 0.4 ESE 9 9 5 5 1002.6 - 4.4
24/05:00pm 7.1 4.9 6.0 93 0.5 NE 7 9 4 5 1002.8 - 4.4
24/04:30pm 7.2 5.1 5.8 91 0.6 W 6 7 3 4 1002.9 - 4.4
24/04:00pm 7.2 2.4 4.9 85 1.0 NW 19 43 10 23 1003.5 - 2.6
24/03:30pm 9.1 5.6 7.2 88 0.9 NW 15 19 8 10 1003.3 - 1.0
24/03:00pm 8.9 5.6 6.5 85 1.1 WNW 13 19 7 10 1003.4 1003.4 0.4
24/02:30pm 9.3 3.8 5.9 79 1.6 NW 24 32 13 17 1003.6 - 0.4
24/02:00pm 10.4 5.3 6.0 74 2.0 NW 22 30 12 16 1003.8 - 0.4
24/01:30pm 10.4 5.5 6.7 78 1.7 NNW 22 28 12 15 1004.1 - 0.4
24/01:00pm 11.2 4.9 5.9 70 2.5 NNW 28 39 15 21 1004.5 - 0.4
24/12:30pm 10.5 5.2 6.6 77 1.8 NNW 24 32 13 17 1004.7 - 0.4
24/12:00pm 10.1 7.2 6.3 77 1.8 N 11 15 6 8 1005.2 1005.2 0.4
24/11:30am 9.6 8.1 7.0 84 1.2 WNW 4 7 2 4 1005.8 - 0.4
24/11:00am 7.8 4.9 6.3 90 0.7 W 11 17 6 9 1006.4 - 0.4
24/10:30am 8.4 6.4 6.9 90 0.7 E 7 11 4 6 1006.4 - 0.0
24/10:00am 6.9 5.3 6.5 97 0.2 S 4 9 2 5 1006.4 - 0.0
24/09:30am 4.8 2.4 4.4 97 0.2 S 6 7 3 4 1006.7 - 0.0
24/09:00am 2.8 -0.1 2.4 97 0.2 SSW 7 9 4 5 1006.8 1006.8 2.8
24/08:30am 0.9 -2.3 0.5 97 0.1 SSW 7 11 4 6 1007.1 - 2.6
24/08:00am 0.5 -3.2 -0.1 96 0.2 SSW 9 11 5 6 1007.0 - 2.6
24/07:30am 0.8 -2.5 0.2 96 0.2 S 7 13 4 7 1007.0 - 2.6
24/07:00am 0.2 -1.8 -0.4 96 0.2 CALM 0 0 0 0 1007.1 - 2.6
24/06:30am 0.5 -2.3 -0.1 96 0.2 ENE 4 9 2 5 1007.1 - 2.6
24/06:00am 1.3 -1.4 0.6 95 0.3 NNW 4 9 2 5 1007.1 1007.1 2.6
24/05:30am 1.3 -0.6 0.6 95 0.3 CALM 0 0 0 0 1007.3 - 2.6
24/05:00am 1.5 -0.8 0.6 94 0.3 NW 2 6 1 3 1007.4 - 2.6
24/04:30am 0.8 -2.4 -0.2 93 0.4 S 6 9 3 5 1007.4 - 2.4
24/04:00am 2.4 -1.5 1.4 93 0.4 S 11 15 6 8 1007.3 - 2.4
24/03:30am 1.1 -2.6 0.2 94 0.3 SW 9 13 5 7 1007.5 - 2.4
24/03:00am 0.8 -1.6 -0.2 93 0.4 SSW 2 6 1 3 1007.6 1007.6 2.4
24/02:30am 1.4 -1.7 0.1 91 0.5 SSW 6 7 3 4 1008.1 - 2.4
24/02:00am 2.3 -0.3 0.7 89 0.6 SSW 4 7 2 4 1007.9 - 2.4
24/01:30am 2.2 -1.5 0.1 86 0.8 W 9 11 5 6 1008.0 - 2.4
24/01:00am 4.2 0.0 1.4 82 1.1 W 13 15 7 8 1008.0 - 2.4
24/12:30am 3.9 -0.6 1.9 87 0.8 NW 15 22 8 12 1008.1 - 2.4
24/12:00am 1.4 -1.8 -0.5 87 0.7 WNW 6 7 3 4 1008.1 1008.1 2.4
 
Date/Time
EST
Temp
°C
App
Temp
°C
Dew
Point
°C
Rel
Hum
%
Delta-T
°C
Wind Press
QNH
hPa
Press
MSL
hPa
Rain since
9am
mm
Dir  Spd
km/h
Gust
km/h
Spd
kts
Gust
kts
23/11:30pm 2.0 -1.4 -0.6 83 0.9 WNW 7 9 4 5 1008.4 - 2.4
23/11:00pm 1.3 -3.3 -0.8 86 0.7 SSW 13 15 7 8 1008.2 - 2.4
23/10:30pm 1.1 -3.5 -0.8 87 0.7 W 13 15 7 8 1008.1 - 2.4
23/10:00pm 1.5 -1.7 -0.6 86 0.8 SW 6 7 3 4 1007.8 - 2.4
23/09:30pm 2.5 -1.5 0.2 85 0.9 WSW 11 17 6 9 1007.5 - 2.4
23/09:00pm 2.1 -2.3 0.2 87 0.7 WNW 13 15 7 8 1007.4 1007.4 2.4
23/08:30pm 2.0 -2.1 -0.1 86 0.8 WNW 11 11 6 6 1006.9 - 2.4
23/08:00pm 3.7 0.1 0.4 79 1.2 S 9 11 5 6 1006.4 - 2.4
23/07:30pm 3.4 -0.3 0.1 79 1.2 W 9 13 5 7 1005.7 - 2.4
23/07:00pm 4.3 0.3 0.3 75 1.5 SW 11 19 6 10 1005.3 - 2.4
23/06:30pm 5.8 -1.0 0.6 69 2.0 WSW 26 43 14 23 1004.5 - 2.4
23/06:00pm 5.3 -0.8 0.7 72 1.8 SW 22 35 12 19 1003.9 1003.9 2.4
23/05:30pm 5.7 -1.8 1.2 73 1.8 WSW 30 39 16 21 1003.3 - 2.4
23/05:00pm 6.1 -2.9 2.2 76 1.6 SW 39 59 21 32 1002.8 - 2.4
23/04:30pm 6.3 -1.7 1.8 73 1.8 SW 33 54 18 29 1001.9 - 2.4
23/04:26pm 6.5 -2.6 1.8 72 1.9 SW 39 57 21 31 1001.9 - 2.4
23/04:00pm 7.5 -1.5 2.6 71 2.0 SW 39 54 21 29 1000.9 - 2.4
23/03:30pm 6.5 -3.6 3.7 82 1.2 SW 46 69 25 37 1000.0 - 2.4
23/03:00pm 6.2 -5.8 3.5 83 1.1 WSW 56 80 30 43 999.1 999.1 2.2
23/02:30pm 6.8 -4.6 2.9 76 1.6 WSW 52 74 28 40 997.6 - 1.6
23/02:22pm 7.7 -3.4 2.6 70 2.1 WSW 50 89 27 48 997.3 - 1.2
23/02:19pm 7.3 -3.3 3.0 74 1.8 WSW 48 89 26 48 997.5 - 1.2
23/02:14pm 7.5 -7.4 2.6 71 2.0 WSW 70 89 38 48 997.2 - 1.2
23/02:00pm 7.8 -3.7 2.1 67 2.4 W 52 78 28 42 997.1 - 1.2
23/01:50pm 7.7 -2.2 2.6 70 2.1 WSW 44 83 24 45 997.2 - 1.2
23/01:49pm 7.7 -2.6 2.6 70 2.1 WSW 46 83 25 45 997.3 - 1.2
23/01:39pm 8.0 -6.8 2.9 70 2.1 WSW 70 89 38 48 997.3 - 1.2
23/01:38pm 7.9 -7.8 2.4 68 2.3 WSW 74 89 40 48 997.1 - 1.2
23/01:34pm 8.4 -2.2 3.1 69 2.3 W 48 72 26 39 997.0 - 1.2
23/01:30pm 8.3 -3.0 3.6 72 2.0 W 52 65 28 35 997.0 - 1.2
23/01:29pm 8.1 -4.3 2.8 69 2.2 W 57 65 31 35 996.9 - 1.2
23/01:13pm 7.6 -0.3 4.2 79 1.5 W 35 54 19 29 996.9 - 1.2
23/01:00pm 6.6 -2.2 3.8 82 1.2 W 39 54 21 29 997.2 - 1.0
23/12:34pm 7.2 -0.7 4.2 81 1.3 WSW 35 56 19 30 997.0 - 0.8
23/12:30pm 6.7 -0.9 3.9 82 1.2 WSW 33 44 18 24 997.1 - 0.8
23/12:00pm 5.3 -4.2 1.8 78 1.4 WSW 41 74 22 40 997.6 997.6 0.2
23/11:55am 6.1 -3.5 1.4 72 1.9 WSW 41 85 22 46 997.6 - 0.0
23/11:48am 6.0 -5.4 0.6 68 2.1 W 50 93 27 50 997.3 - 0.0
23/11:45am 5.7 -9.8 0.9 71 1.9 SW 72 93 39 50 997.7 - 0.0
23/11:44am 6.4 -3.7 1.3 70 2.0 WSW 44 83 24 45 997.4 - 0.0
23/11:30am 6.9 -2.9 2.4 73 1.9 WSW 43 61 23 33 997.3 - 0.0
23/11:20am 6.3 -5.3 2.0 74 1.7 WSW 52 72 28 39 997.4 - 0.0
23/11:18am 6.3 -6.6 1.6 72 1.9 WSW 59 72 32 39 997.2 - 0.0
23/11:12am 7.5 -1.6 1.8 67 2.3 WSW 39 59 21 32 997.0 - 0.0
23/11:00am 7.4 -1.8 1.0 64 2.6 WSW 39 52 21 28 996.7 - 0.0
23/10:39am 7.9 -2.8 0.2 58 3.0 WSW 46 65 25 35 996.4 - 0.0
23/10:30am 7.7 -3.1 -0.3 57 3.1 WSW 46 63 25 34 996.3 - 0.0
23/10:00am 7.4 -2.9 0.4 61 2.8 WSW 44 67 24 36 995.8 - 0.0
23/09:32am 7.0 -3.3 0.2 62 2.7 WSW 44 63 24 34 995.3 - 0.0
23/09:30am 6.9 -3.8 -0.1 61 2.7 WSW 46 63 25 34 995.3 - 0.0
23/09:13am 6.4 -2.1 1.1 69 2.1 WSW 35 57 19 31 995.0 - 0.0
23/09:00am 5.8 -2.0 1.7 75 1.7 WSW 32 43 17 23 994.9 994.9 5.4
23/08:43am 4.2 -2.9 1.4 82 1.1 WSW 28 46 15 25 994.7 - 5.4
23/08:30am 3.9 -3.5 1.6 85 0.9 WSW 30 41 16 22 994.6 - 5.4
23/08:11am 3.3 -6.3 1.0 85 0.9 WSW 41 74 22 40 994.3 - 5.4
23/08:03am 3.4 -10.1 0.8 83 1.0 WSW 61 82 33 44 994.9 - 5.4
23/08:00am 3.9 -10.4 0.1 76 1.4 WSW 65 82 35 44 994.3 - 5.0
23/07:59am 4.2 -10.1 0.0 74 1.6 WSW 65 82 35 44 994.4 - 5.0
23/07:57am 5.4 -4.8 -0.4 66 2.2 WSW 43 63 23 34 994.1 - 4.6
23/07:30am 5.6 -3.0 0.0 67 2.1 WSW 35 52 19 28 993.2 - 4.6
23/07:10am 5.4 -2.7 0.8 72 1.8 WSW 33 54 18 29 993.1 - 4.6
23/07:00am 5.1 -3.3 1.4 77 1.5 W 35 50 19 27 992.9 - 4.6
23/06:49am 5.3 -2.2 1.4 76 1.5 WSW 30 74 16 40 992.7 - 4.6
23/06:44am 5.6 -6.8 1.2 73 1.7 WSW 56 74 30 40 992.7 - 4.6
23/06:43am 5.7 -6.9 1.1 72 1.8 WSW 57 74 31 40 992.6 - 4.6
23/06:41am 5.5 -3.0 1.2 74 1.7 WSW 35 57 19 31 992.3 - 4.6
23/06:30am 5.2 -2.6 1.7 78 1.4 WSW 32 43 17 23 992.0 - 4.6
23/06:00am 4.5 -3.4 2.4 86 0.9 WSW 33 56 18 30 991.6 991.6 4.6
23/05:48am 4.6 -7.2 2.5 86 0.8 WSW 54 72 29 39 991.3 - 4.6
23/05:46am 4.8 -8.4 2.3 84 1.0 SW 61 72 33 39 991.6 - 4.6
23/05:32am 5.2 -3.4 2.6 83 1.1 WSW 37 56 20 30 990.9 - 4.4
23/05:30am 5.3 -3.7 2.5 82 1.1 WSW 39 56 21 30 990.7 - 4.4
23/05:00am 6.0 -1.9 4.5 90 0.6 WSW 35 54 19 29 990.5 - 4.2
23/04:30am 5.8 -2.7 5.1 95 0.3 WSW 39 54 21 29 989.8 - 4.2
23/04:10am 5.8 -1.1 4.4 91 0.6 WSW 30 50 16 27 989.6 - 3.8
23/04:00am 5.9 -0.3 4.5 91 0.6 SW 26 37 14 20 989.2 - 3.6
23/03:30am 6.0 -1.3 4.6 91 0.6 WSW 32 44 17 24 989.4 - 2.8
23/03:00am 6.2 0.4 4.4 88 0.8 W 24 33 13 18 988.8 988.9 1.8
23/02:39am 6.4 -1.5 4.4 87 0.9 WSW 35 61 19 33 989.1 - 1.4
23/02:30am 6.6 -0.9 4.6 87 0.9 WSW 33 41 18 22 989.0 - 1.2
23/02:00am 7.0 0.9 5.0 87 0.9 W 26 46 14 25 988.5 - 1.0
23/01:30am 6.7 3.8 4.9 88 0.8 WSW 9 11 5 6 988.5 - 0.6
23/01:00am 7.1 2.7 4.6 84 1.1 WSW 17 24 9 13 988.6 - 0.6
23/12:30am 7.3 2.4 5.1 86 1.0 WSW 20 26 11 14 988.9 - 0.6
23/12:00am 6.2 5.1 5.2 93 0.4 CALM 0 0 0 0 989.1 989.2 0.6
 
Date/Time
EST
Temp
°C
App
Temp
°C
Dew
Point
°C
Rel
Hum
%
Delta-T
°C
Wind Press
QNH
hPa
Press
MSL
hPa
Rain since
9am
mm
Dir  Spd
km/h
Gust
km/h
Spd
kts
Gust
kts
22/11:30pm 6.4 4.2 5.4 93 0.4 NW 6 7 3 4 989.4 - 0.6
22/11:00pm 6.8 5.4 5.6 92 0.5 NW 2 6 1 3 989.4 - 0.6
22/10:30pm 6.8 4.5 5.6 92 0.5 NW 7 9 4 5 989.8 - 0.6
22/10:00pm 6.9 5.9 5.4 90 0.7 CALM 0 0 0 0 989.8 - 0.6
22/09:30pm 7.5 4.9 6.0 90 0.7 W 9 11 5 6 989.9 - 0.6
22/09:00pm 7.4 3.2 5.7 89 0.8 WNW 17 20 9 11 990.2 990.3 0.6
22/08:30pm 6.6 4.0 4.4 86 0.9 W 7 13 4 7 990.5 - 0.6
22/08:00pm 7.8 3.9 5.3 84 1.1 WSW 15 19 8 10 990.5 - 0.6
22/07:30pm 7.8 3.4 4.9 82 1.3 W 17 24 9 13 990.3 - 0.6
22/07:00pm 8.0 3.4 5.6 85 1.1 WSW 19 24 10 13 990.0 - 0.6
22/06:30pm 8.8 2.9 5.7 81 1.4 W 26 37 14 20 990.0 - 0.6
22/06:00pm 9.0 3.0 5.4 78 1.6 WSW 26 35 14 19 989.6 989.7 0.6
22/05:40pm 9.4 2.1 5.4 76 1.8 WSW 33 54 18 29 989.4 - 0.6
22/05:30pm 9.5 1.8 5.3 75 1.9 W 35 50 19 27 989.2 - 0.6
22/05:00pm 10.2 2.3 4.6 68 2.5 W 35 50 19 27 989.0 - 0.6
22/04:36pm 10.7 1.3 4.4 65 2.8 W 43 65 23 35 988.5 - 0.6
22/04:30pm 10.7 1.8 5.3 69 2.5 W 41 54 22 29 988.7 - 0.6
22/04:00pm 11.1 2.6 7.0 76 2.0 WSW 41 61 22 33 988.6 - 0.6
22/03:30pm 11.0 1.1 6.7 75 2.0 W 48 69 26 37 988.2 - 0.6
22/03:00pm 12.1 2.2 6.4 68 2.7 W 48 67 26 36 987.5 987.6 0.6
22/02:30pm 12.4 3.7 7.5 72 2.4 W 43 67 23 36 987.1 - 0.4
22/02:00pm 12.9 3.9 9.0 77 2.0 W 46 65 25 35 986.7 - 0.4
22/01:47pm 12.6 3.9 8.5 76 2.0 W 44 69 24 37 986.7 - 0.4
22/01:30pm 12.7 3.7 8.8 77 2.0 W 46 63 25 34 986.8 - 0.4
22/01:00pm 12.2 4.3 9.2 82 1.5 W 41 57 22 31 986.7 - 0.4
22/12:39pm 12.2 6.0 9.9 86 1.2 W 33 52 18 28 986.6 - 0.2
22/12:30pm 12.1 5.4 9.8 86 1.2 WNW 35 46 19 25 986.5 - 0.2
22/12:27pm 12.2 5.2 9.8 85 1.2 WNW 37 56 20 30 986.5 - 0.2
22/12:00pm 12.0 3.9 8.7 80 1.7 WNW 41 56 22 30 986.8 986.9 0.2
22/11:45am 11.8 4.1 8.5 80 1.6 WNW 39 63 21 34 987.2 - 0.2
22/11:30am 12.9 1.2 9.2 78 1.9 WNW 61 85 33 46 987.1 - 0.2
22/11:28am 12.9 0.7 9.0 77 2.0 WNW 63 85 34 46 987.5 - 0.2
22/11:27am 13.2 5.2 8.9 75 2.2 WNW 41 85 22 46 987.1 - 0.2
22/11:23am 14.0 6.9 10.8 81 1.7 WNW 39 57 21 31 987.2 - 0.0
22/11:00am 13.3 5.6 10.3 82 1.6 NW 41 57 22 31 987.9 - 0.0
22/10:49am 13.1 5.1 10.3 83 1.4 NW 43 56 23 30 988.0 - 0.0
22/10:36am 13.6 7.6 10.9 84 1.4 NNW 33 54 18 29 987.9 - 0.0
22/10:30am 13.7 9.1 11.0 84 1.4 NNW 26 35 14 19 988.0 - 0.0
22/10:00am 13.8 10.0 11.0 83 1.5 NW 22 32 12 17 988.7 - 0.0
22/09:30am 13.9 10.4 10.9 82 1.6 NW 20 30 11 16 989.5 - 0.0
22/09:00am 13.0 8.6 10.4 84 1.4 WNW 24 35 13 19 990.1 990.2 12.0
22/08:30am 12.8 6.7 10.3 85 1.3 WNW 33 43 18 23 990.8 - 12.0

Other Formats:

Comma delimited format used in spreadsheet applications
http://www.bom.gov.au/fwo/IDT60801/IDT60801.94953.axf

JavaScript Object Notation format (JSON) in row-major order
http://www.bom.gov.au/fwo/IDT60801/IDT60801.94953.json